Time;durP1;ratioP1;P1;durP2;ratioP2;P2;SDS_P1;SDS_P2;PMS_P1;PMS_P2;Temp;Humidity;BMP_temperature;BMP_pressure;BME280_temperature;BME280_humidity;BME280_pressure;Samples;Min_cycle;Max_cycle;Signal;HPM_P1;HPM_P2
2022/10/09 00:00:41;;;;;;;9.68;1.30;;;;;;;;;;4925578;29;20056;-73
2022/10/09 00:03:09;;;;;;;12.60;1.90;;;;;;;;;;4924332;29;20066;-73
2022/10/09 00:05:36;;;;;;;6.35;1.20;;;;;;;;;;4924556;29;20455;-73
2022/10/09 00:08:03;;;;;;;8.52;1.90;;;;;;;;;;4927117;29;20048;-73
2022/10/09 00:10:30;;;;;;;9.75;1.80;;;;;;;;;;4921283;29;20052;-73
2022/10/09 00:12:58;;;;;;;11.10;1.45;;;;;;;;;;4928120;29;20055;-73
2022/10/09 00:15:25;;;;;;;8.20;1.80;;;;;;;;;;4927100;29;20056;-73
2022/10/09 00:17:54;;;;;;;8.82;1.50;;;;;;;;;;4927060;29;20106;-73
2022/10/09 00:20:21;;;;;;;11.27;1.30;;;;;;;;;;4927093;29;20072;-73
2022/10/09 00:22:48;;;;;;;9.98;1.58;;;;;;;;;;4926298;29;20066;-73
2022/10/09 00:25:15;;;;;;;7.35;1.58;;;;;;;;;;4927489;29;20050;-73
2022/10/09 00:27:43;;;;;;;10.90;1.52;;;;;;;;;;4923567;29;20075;-73
2022/10/09 00:30:10;;;;;;;13.80;2.00;;;;;;;;;;4926302;29;20047;-73
2022/10/09 00:32:37;;;;;;;9.10;1.55;;;;;;;;;;4923946;29;20059;-73
2022/10/09 00:35:07;;;;;;;8.23;1.27;;;;;;;;;;4926860;29;20067;-73
2022/10/09 00:37:34;;;;;;;11.35;1.98;;;;;;;;;;4927728;29;20130;-73
2022/10/09 00:40:02;;;;;;;11.05;1.75;;;;;;;;;;4926675;29;20074;-73
2022/10/09 00:42:29;;;;;;;8.50;1.73;;;;;;;;;;4927784;29;20051;-73
2022/10/09 00:44:58;;;;;;;8.88;1.55;;;;;;;;;;4926205;29;20493;-73
2022/10/09 00:47:28;;;;;;;11.38;1.60;;;;;;;;;;4925488;29;20091;-73
2022/10/09 00:49:59;;;;;;;8.77;1.45;;;;;;;;;;4925743;29;20050;-73
2022/10/09 00:52:27;;;;;;;10.07;1.77;;;;;;;;;;4926156;29;20110;-73
2022/10/09 00:54:56;;;;;;;12.65;1.75;;;;;;;;;;4923756;29;20406;-73
2022/10/09 00:57:23;;;;;;;10.80;1.48;;;;;;;;;;4926523;29;20056;-73
2022/10/09 00:59:50;;;;;;;6.55;1.60;;;;;;;;;;4925840;29;20059;-73
2022/10/09 01:02:18;;;;;;;14.35;1.55;;;;;;;;;;4927568;29;20044;-73
2022/10/09 01:04:45;;;;;;;8.68;1.65;;;;;;;;;;4925657;29;20052;-73
2022/10/09 01:07:19;;;;;;;11.90;2.00;;;;;;;;;;4931018;28;20066;-73
2022/10/09 01:09:51;;;;;;;9.32;1.40;;;;;;;;;;4945191;28;20062;-73
2022/10/09 01:12:22;;;;;;;7.63;1.45;;;;;;;;;;4948088;28;20047;-73
2022/10/09 01:14:57;;;;;;;9.45;1.60;;;;;;;;;;4945968;28;20114;-73
2022/10/09 01:17:28;;;;;;;12.20;1.70;;;;;;;;;;4947204;28;20059;-73
2022/10/09 01:20:06;;;;;;;7.32;1.60;;;;;;;;;;4942327;29;20062;-73
2022/10/09 01:22:41;;;;;;;9.40;1.40;;;;;;;;;;4946442;28;20054;-74
2022/10/09 01:25:11;;;;;;;11.27;1.55;;;;;;;;;;4944708;28;20044;-74
2022/10/09 01:27:40;;;;;;;7.60;1.33;;;;;;;;;;4946384;28;20117;-74
2022/10/09 01:30:09;;;;;;;13.57;1.40;;;;;;;;;;4944987;29;20071;-74
2022/10/09 01:32:38;;;;;;;12.25;1.52;;;;;;;;;;4948677;28;20118;-73
2022/10/09 01:35:06;;;;;;;16.02;1.52;;;;;;;;;;4946342;28;20059;-73
2022/10/09 01:37:34;;;;;;;7.38;1.42;;;;;;;;;;4944836;28;20047;-73
2022/10/09 01:40:01;;;;;;;10.27;1.60;;;;;;;;;;4947478;28;20054;-73
2022/10/09 01:42:29;;;;;;;14.90;2.40;;;;;;;;;;4946435;28;20043;-73
2022/10/09 01:44:58;;;;;;;10.52;1.90;;;;;;;;;;4944131;28;20058;-73
2022/10/09 01:47:25;;;;;;;8.10;1.83;;;;;;;;;;4939423;28;20058;-73
2022/10/09 01:49:55;;;;;;;8.23;1.60;;;;;;;;;;4944716;28;20067;-73
2022/10/09 01:52:27;;;;;;;12.45;2.47;;;;;;;;;;4944894;29;20062;-73
2022/10/09 01:55:03;;;;;;;12.88;1.75;;;;;;;;;;4945826;28;20054;-73
2022/10/09 01:57:33;;;;;;;15.68;2.00;;;;;;;;;;4943887;29;20057;-73
2022/10/09 02:00:04;;;;;;;10.70;1.95;;;;;;;;;;4943374;28;20074;-73
2022/10/09 02:02:31;;;;;;;6.60;1.80;;;;;;;;;;4942867;28;20422;-73
2022/10/09 02:04:59;;;;;;;13.82;1.98;;;;;;;;;;4948631;28;20047;-73
2022/10/09 02:07:26;;;;;;;5.65;1.67;;;;;;;;;;4954159;28;20065;-73
2022/10/09 02:09:54;;;;;;;8.20;1.63;;;;;;;;;;4968547;28;20101;-73
2022/10/09 02:12:23;;;;;;;6.78;1.40;;;;;;;;;;4951556;28;20069;-73
2022/10/09 02:14:50;;;;;;;6.55;1.75;;;;;;;;;;4966273;28;20051;-73
2022/10/09 02:17:22;;;;;;;10.93;2.22;;;;;;;;;;4964417;28;20443;-73
2022/10/09 02:19:51;;;;;;;9.10;2.00;;;;;;;;;;4967445;28;20468;-73
2022/10/09 02:22:18;;;;;;;6.88;1.80;;;;;;;;;;4960419;28;20386;-73
2022/10/09 02:24:46;;;;;;;14.30;1.90;;;;;;;;;;4948109;28;20130;-72
2022/10/09 02:27:14;;;;;;;5.43;1.40;;;;;;;;;;4949473;28;20054;-73
2022/10/09 02:29:42;;;;;;;13.65;2.13;;;;;;;;;;4967953;28;20120;-73
2022/10/09 02:32:09;;;;;;;9.82;1.65;;;;;;;;;;4952222;28;20065;-73
2022/10/09 02:34:37;;;;;;;10.63;1.80;;;;;;;;;;4966932;28;20595;-73
2022/10/09 02:37:05;;;;;;;6.38;1.67;;;;;;;;;;4965793;28;20097;-73
2022/10/09 02:39:32;;;;;;;7.82;1.63;;;;;;;;;;4968515;28;20051;-73
2022/10/09 02:41:59;;;;;;;9.45;1.65;;;;;;;;;;4963328;28;20047;-73
2022/10/09 02:44:26;;;;;;;9.45;1.83;;;;;;;;;;4967711;28;20058;-73
2022/10/09 02:46:53;;;;;;;4.85;2.17;;;;;;;;;;4949814;28;20414;-73
2022/10/09 02:49:21;;;;;;;9.40;2.08;;;;;;;;;;4948595;28;20062;-73
2022/10/09 02:51:49;;;;;;;10.45;2.40;;;;;;;;;;4965390;28;20047;-73
2022/10/09 02:54:16;;;;;;;10.38;2.15;;;;;;;;;;4952678;28;20059;-73
2022/10/09 02:56:44;;;;;;;9.27;2.53;;;;;;;;;;4967193;28;20043;-73
2022/10/09 02:59:11;;;;;;;8.93;2.50;;;;;;;;;;4967602;28;20462;-73
2022/10/09 03:01:38;;;;;;;10.27;2.50;;;;;;;;;;4949763;28;20047;-73
2022/10/09 03:04:05;;;;;;;8.57;2.25;;;;;;;;;;4949041;28;20073;-73
2022/10/09 03:06:33;;;;;;;9.23;2.08;;;;;;;;;;4961821;28;20519;-73
2022/10/09 03:09:01;;;;;;;15.32;2.80;;;;;;;;;;4965079;28;20088;-73
2022/10/09 03:11:28;;;;;;;13.23;2.33;;;;;;;;;;4950279;28;20058;-73
2022/10/09 03:13:56;;;;;;;12.73;2.80;;;;;;;;;;4951239;28;20055;-74
2022/10/09 03:16:24;;;;;;;12.65;2.40;;;;;;;;;;4950733;28;20137;-74
2022/10/09 03:18:51;;;;;;;9.02;2.85;;;;;;;;;;4948361;28;20059;-74
2022/10/09 03:21:19;;;;;;;14.05;3.47;;;;;;;;;;4948982;28;20129;-74
2022/10/09 03:23:47;;;;;;;8.77;2.80;;;;;;;;;;4948129;28;20066;-74
2022/10/09 03:26:17;;;;;;;15.18;2.40;;;;;;;;;;4966676;28;20051;-74
2022/10/09 03:28:46;;;;;;;9.50;2.33;;;;;;;;;;4945615;28;20051;-74
2022/10/09 03:31:13;;;;;;;15.18;2.72;;;;;;;;;;4942535;28;20062;-74
2022/10/09 03:33:40;;;;;;;8.10;2.40;;;;;;;;;;4953312;28;20058;-74
2022/10/09 03:36:08;;;;;;;8.57;2.30;;;;;;;;;;4949845;28;20082;-74
2022/10/09 03:38:35;;;;;;;8.95;2.40;;;;;;;;;;4954050;28;20531;-74
2022/10/09 03:41:03;;;;;;;10.93;2.40;;;;;;;;;;4938481;28;20051;-74
2022/10/09 03:43:32;;;;;;;11.25;2.95;;;;;;;;;;4941286;28;20117;-74
2022/10/09 03:45:59;;;;;;;7.30;1.80;;;;;;;;;;4942694;28;20114;-74
2022/10/09 03:48:26;;;;;;;11.40;2.30;;;;;;;;;;4944664;28;20735;-74
2022/10/09 03:50:53;;;;;;;11.05;2.35;;;;;;;;;;4943661;28;20050;-74
2022/10/09 03:53:20;;;;;;;16.38;3.05;;;;;;;;;;4948457;28;20050;-74
2022/10/09 03:55:48;;;;;;;11.45;2.42;;;;;;;;;;4941336;28;20050;-74
2022/10/09 03:58:15;;;;;;;8.82;2.33;;;;;;;;;;4948531;28;20054;-74
2022/10/09 04:00:45;;;;;;;8.93;2.40;;;;;;;;;;4946223;28;20062;-74
2022/10/09 04:03:12;;;;;;;13.27;2.22;;;;;;;;;;4948476;28;20517;-74
2022/10/09 04:05:40;;;;;;;11.63;3.13;;;;;;;;;;4965285;28;20445;-74
2022/10/09 04:08:08;;;;;;;13.90;2.97;;;;;;;;;;4943527;28;20178;-74
2022/10/09 04:10:35;;;;;;;12.02;2.78;;;;;;;;;;4961414;28;20047;-74
2022/10/09 04:13:02;;;;;;;14.88;3.05;;;;;;;;;;4941549;28;20066;-74
2022/10/09 04:15:29;;;;;;;9.73;3.70;;;;;;;;;;4963699;28;20644;-74
2022/10/09 04:17:58;;;;;;;17.40;2.70;;;;;;;;;;4943407;28;20066;-74
2022/10/09 04:20:25;;;;;;;11.13;2.90;;;;;;;;;;4945074;28;20059;-74
2022/10/09 04:22:53;;;;;;;10.68;2.80;;;;;;;;;;4953038;28;20055;-74
2022/10/09 04:25:20;;;;;;;11.25;3.17;;;;;;;;;;4948995;28;20105;-74
2022/10/09 04:27:47;;;;;;;11.63;3.75;;;;;;;;;;4946818;28;20051;-74
2022/10/09 04:30:14;;;;;;;13.55;4.38;;;;;;;;;;4953194;28;20051;-74
2022/10/09 04:32:41;;;;;;;11.07;3.45;;;;;;;;;;4937245;28;20722;-74
2022/10/09 04:35:10;;;;;;;11.73;3.40;;;;;;;;;;4944144;28;20047;-74
2022/10/09 04:37:37;;;;;;;11.90;3.20;;;;;;;;;;4941258;28;20449;-74
2022/10/09 04:40:05;;;;;;;10.63;3.00;;;;;;;;;;4956467;28;20494;-74
2022/10/09 04:42:32;;;;;;;11.43;3.45;;;;;;;;;;4946245;28;20082;-74
2022/10/09 04:44:59;;;;;;;15.00;3.83;;;;;;;;;;4944220;28;20055;-74
2022/10/09 04:47:27;;;;;;;9.75;3.80;;;;;;;;;;4944435;28;20053;-74
2022/10/09 04:49:54;;;;;;;9.85;4.80;;;;;;;;;;4948838;28;20062;-74
2022/10/09 04:52:22;;;;;;;17.05;4.70;;;;;;;;;;4943380;28;20061;-74
2022/10/09 04:54:50;;;;;;;10.32;4.90;;;;;;;;;;4945369;28;20051;-74
2022/10/09 04:57:17;;;;;;;13.55;5.57;;;;;;;;;;4964388;28;20624;-74
2022/10/09 04:59:44;;;;;;;15.43;5.60;;;;;;;;;;4943048;28;20054;-74
2022/10/09 05:02:11;;;;;;;14.50;6.40;;;;;;;;;;4964591;28;20042;-74
2022/10/09 05:04:39;;;;;;;20.88;8.05;;;;;;;;;;4945384;28;20050;-74
2022/10/09 05:07:06;;;;;;;14.45;7.63;;;;;;;;;;4946612;28;20062;-74
2022/10/09 05:09:35;;;;;;;20.48;9.05;;;;;;;;;;4948121;28;20062;-74
2022/10/09 05:12:02;;;;;;;18.63;9.35;;;;;;;;;;4946235;28;20057;-74
2022/10/09 05:14:29;;;;;;;19.77;9.65;;;;;;;;;;4963254;28;20485;-74
2022/10/09 05:17:01;;;;;;;19.08;10.23;;;;;;;;;;4948400;28;20058;-74
2022/10/09 05:19:29;;;;;;;23.45;9.73;;;;;;;;;;4952466;28;20757;-74
2022/10/09 05:21:56;;;;;;;32.75;10.95;;;;;;;;;;4948149;28;20109;-74
2022/10/09 05:24:23;;;;;;;26.75;8.77;;;;;;;;;;4964674;28;20053;-74
2022/10/09 05:26:52;;;;;;;44.45;8.00;;;;;;;;;;4961549;28;20058;-74
2022/10/09 05:29:19;;;;;;;30.13;7.38;;;;;;;;;;4948197;28;20074;-74
2022/10/09 05:31:46;;;;;;;36.72;7.03;;;;;;;;;;4964825;28;20201;-74
2022/10/09 05:34:14;;;;;;;70.43;7.57;;;;;;;;;;4944443;28;20054;-76
2022/10/09 05:36:41;;;;;;;20.58;6.50;;;;;;;;;;4947928;28;20149;-75
2022/10/09 05:39:08;;;;;;;14.10;7.90;;;;;;;;;;4951405;28;20709;-75
2022/10/09 05:41:35;;;;;;;27.10;8.50;;;;;;;;;;4951547;28;20509;-73
2022/10/09 05:44:04;;;;;;;36.53;8.95;;;;;;;;;;4950283;28;20058;-73
2022/10/09 05:46:31;;;;;;;18.75;7.32;;;;;;;;;;4965363;28;20047;-75
2022/10/09 05:49:00;;;;;;;16.20;8.02;;;;;;;;;;4951628;28;20429;-75
2022/10/09 05:51:28;;;;;;;23.55;6.97;;;;;;;;;;4950640;28;20471;-75
2022/10/09 05:53:56;;;;;;;66.82;6.95;;;;;;;;;;4968182;28;20081;-75
2022/10/09 05:56:24;;;;;;;38.70;7.32;;;;;;;;;;4952101;28;20046;-74
2022/10/09 05:58:52;;;;;;;18.75;6.43;;;;;;;;;;4947557;28;20519;-75
2022/10/09 06:01:21;;;;;;;21.48;6.95;;;;;;;;;;4950980;28;20062;-74
2022/10/09 06:03:50;;;;;;;14.32;7.18;;;;;;;;;;4963298;28;20055;-74
2022/10/09 06:06:18;;;;;;;16.55;7.82;;;;;;;;;;4966736;28;20201;-74
2022/10/09 06:08:45;;;;;;;14.20;6.55;;;;;;;;;;4949566;28;20055;-73
2022/10/09 06:11:13;;;;;;;13.48;6.70;;;;;;;;;;4967962;28;20043;-75
2022/10/09 06:13:40;;;;;;;18.90;7.35;;;;;;;;;;4949997;28;20054;-73
2022/10/09 06:16:10;;;;;;;10.20;5.55;;;;;;;;;;4967243;28;20078;-74
2022/10/09 06:18:38;;;;;;;12.15;5.90;;;;;;;;;;4951087;28;20050;-73
2022/10/09 06:21:06;;;;;;;13.40;7.70;;;;;;;;;;4967961;28;20047;-75
2022/10/09 06:23:33;;;;;;;15.27;7.30;;;;;;;;;;4949062;28;20074;-74
2022/10/09 06:26:02;;;;;;;16.05;7.03;;;;;;;;;;4949728;28;20080;-75
2022/10/09 06:28:29;;;;;;;18.90;7.88;;;;;;;;;;4950420;28;20453;-75
2022/10/09 06:31:01;;;;;;;17.40;7.07;;;;;;;;;;4950132;28;20066;-75
2022/10/09 06:33:29;;;;;;;25.52;7.90;;;;;;;;;;4949916;28;20058;-75
2022/10/09 06:36:01;;;;;;;18.42;8.55;;;;;;;;;;4948563;28;20055;-75
2022/10/09 06:38:28;;;;;;;17.85;8.25;;;;;;;;;;4947045;28;20054;-75
2022/10/09 06:40:55;;;;;;;15.48;8.00;;;;;;;;;;4947476;28;20105;-75
2022/10/09 06:43:22;;;;;;;18.95;8.80;;;;;;;;;;4950216;28;20081;-75
2022/10/09 06:45:50;;;;;;;18.20;8.50;;;;;;;;;;4947836;28;20066;-75
2022/10/09 06:48:17;;;;;;;21.80;8.48;;;;;;;;;;4948532;28;20059;-75
2022/10/09 06:50:44;;;;;;;18.23;7.63;;;;;;;;;;4943228;28;20074;-75
2022/10/09 06:53:13;;;;;;;27.23;8.70;;;;;;;;;;4950230;28;20051;-75
2022/10/09 06:55:40;;;;;;;15.57;7.35;;;;;;;;;;4949742;28;20532;-73
2022/10/09 06:58:07;;;;;;;19.50;8.40;;;;;;;;;;4950849;28;20054;-74
2022/10/09 07:00:34;;;;;;;16.77;7.82;;;;;;;;;;4945482;28;20063;-73
2022/10/09 07:03:02;;;;;;;17.45;6.90;;;;;;;;;;4948044;28;20054;-76
2022/10/09 07:05:29;;;;;;;23.02;7.65;;;;;;;;;;4949909;28;20057;-75
2022/10/09 07:07:56;;;;;;;15.18;7.13;;;;;;;;;;4949559;28;20457;-75
2022/10/09 07:10:24;;;;;;;15.18;7.03;;;;;;;;;;4950581;28;20059;-74
2022/10/09 07:12:52;;;;;;;11.30;6.10;;;;;;;;;;4948906;28;20043;-74
2022/10/09 07:15:19;;;;;;;16.48;6.60;;;;;;;;;;4947617;28;20055;-76
2022/10/09 07:17:46;;;;;;;15.85;6.55;;;;;;;;;;4952793;28;20043;-76
2022/10/09 07:20:13;;;;;;;19.35;6.95;;;;;;;;;;4950276;28;20054;-75
2022/10/09 07:22:41;;;;;;;17.48;6.28;;;;;;;;;;4950908;28;20050;-74
2022/10/09 07:25:10;;;;;;;15.27;5.75;;;;;;;;;;4947474;28;20059;-75
2022/10/09 07:27:39;;;;;;;12.38;5.22;;;;;;;;;;4948081;28;20054;-73
2022/10/09 07:30:07;;;;;;;18.38;6.60;;;;;;;;;;4966362;28;20046;-74
2022/10/09 07:32:34;;;;;;;14.95;5.85;;;;;;;;;;4948413;28;20433;-74
2022/10/09 07:35:01;;;;;;;17.58;6.13;;;;;;;;;;4943959;28;20050;-75
2022/10/09 07:37:29;;;;;;;14.13;5.40;;;;;;;;;;4942851;28;20073;-74
2022/10/09 07:39:56;;;;;;;13.88;5.78;;;;;;;;;;4965643;28;20682;-74
2022/10/09 07:42:23;;;;;;;13.80;4.75;;;;;;;;;;4961185;28;20147;-73
2022/10/09 07:44:52;;;;;;;13.50;4.90;;;;;;;;;;4965875;28;20131;-74
2022/10/09 07:47:19;;;;;;;12.85;4.47;;;;;;;;;;4949431;28;20429;-75
2022/10/09 07:49:46;;;;;;;9.93;4.53;;;;;;;;;;4965639;28;20058;-76
2022/10/09 07:52:13;;;;;;;16.60;4.50;;;;;;;;;;4965361;28;20054;-74
2022/10/09 07:54:40;;;;;;;20.42;4.78;;;;;;;;;;4947255;28;20062;-74
2022/10/09 07:57:07;;;;;;;14.00;3.45;;;;;;;;;;4948228;28;20054;-74
2022/10/09 07:59:35;;;;;;;8.95;3.67;;;;;;;;;;4965853;28;20046;-73
2022/10/09 08:02:03;;;;;;;12.60;3.95;;;;;;;;;;4948193;28;20061;-75
2022/10/09 08:04:31;;;;;;;14.57;3.83;;;;;;;;;;4949211;28;20047;-74
2022/10/09 08:06:58;;;;;;;11.50;3.63;;;;;;;;;;4947242;28;20051;-75
2022/10/09 08:09:26;;;;;;;15.55;4.75;;;;;;;;;;4949041;28;20134;-75
2022/10/09 08:11:53;;;;;;;9.88;3.83;;;;;;;;;;4949121;28;20055;-74
2022/10/09 08:14:20;;;;;;;11.38;3.65;;;;;;;;;;4947047;28;20425;-74
2022/10/09 08:16:48;;;;;;;13.07;3.08;;;;;;;;;;4965410;28;20050;-76
2022/10/09 08:19:16;;;;;;;10.05;3.20;;;;;;;;;;4948017;28;20050;-74
2022/10/09 08:21:43;;;;;;;10.30;3.85;;;;;;;;;;4960568;28;20047;-74
2022/10/09 08:24:11;;;;;;;10.15;3.40;;;;;;;;;;4945081;28;20486;-75
2022/10/09 08:26:39;;;;;;;8.57;2.88;;;;;;;;;;4948544;28;20058;-75
2022/10/09 08:29:09;;;;;;;12.50;3.50;;;;;;;;;;4945724;28;20066;-75
2022/10/09 08:31:37;;;;;;;8.93;2.60;;;;;;;;;;4943025;28;20053;-75
2022/10/09 08:34:04;;;;;;;13.07;2.97;;;;;;;;;;4947617;28;20106;-77
2022/10/09 08:36:33;;;;;;;7.68;2.72;;;;;;;;;;4940383;29;20514;-75
2022/10/09 08:39:00;;;;;;;12.45;2.70;;;;;;;;;;4946870;28;20429;-75
2022/10/09 08:41:35;;;;;;;12.32;2.90;;;;;;;;;;4946458;28;20058;-76
2022/10/09 08:44:03;;;;;;;12.75;2.00;;;;;;;;;;4945982;28;20058;-74
2022/10/09 08:46:34;;;;;;;8.88;2.40;;;;;;;;;;4963539;28;20050;-74
2022/10/09 08:49:03;;;;;;;8.35;2.35;;;;;;;;;;4944974;28;20523;-75
2022/10/09 08:51:33;;;;;;;11.35;2.40;;;;;;;;;;4962921;28;20528;-73
2022/10/09 08:54:04;;;;;;;9.20;2.55;;;;;;;;;;4949355;28;20066;-75
2022/10/09 08:56:33;;;;;;;8.82;2.65;;;;;;;;;;4947585;28;20050;-76
2022/10/09 08:59:02;;;;;;;9.70;2.40;;;;;;;;;;4947144;28;20051;-75
2022/10/09 09:01:33;;;;;;;11.25;3.17;;;;;;;;;;4943902;28;20043;-75
2022/10/09 09:04:07;;;;;;;12.85;2.30;;;;;;;;;;4948785;28;20506;-76
2022/10/09 09:06:40;;;;;;;6.97;1.92;;;;;;;;;;4950396;28;20055;-76
2022/10/09 09:09:12;;;;;;;9.52;2.20;;;;;;;;;;4945221;28;20055;-76
2022/10/09 09:11:45;;;;;;;9.70;2.58;;;;;;;;;;4963867;28;20364;-75
2022/10/09 09:14:20;;;;;;;9.90;1.97;;;;;;;;;;4950138;28;20051;-74
2022/10/09 09:16:51;;;;;;;8.90;2.70;;;;;;;;;;4964689;28;20047;-74
2022/10/09 09:19:26;;;;;;;12.15;2.80;;;;;;;;;;4969083;28;20059;-74
2022/10/09 09:21:54;;;;;;;10.95;2.53;;;;;;;;;;4947030;28;20054;-74
2022/10/09 09:24:28;;;;;;;12.98;2.85;;;;;;;;;;4952074;28;20058;-74
2022/10/09 09:26:57;;;;;;;12.85;3.08;;;;;;;;;;4949504;28;20054;-74
2022/10/09 09:29:24;;;;;;;11.20;2.15;;;;;;;;;;4962205;28;20046;-74
2022/10/09 09:31:54;;;;;;;10.48;2.05;;;;;;;;;;4946953;28;20062;-74
2022/10/09 09:34:25;;;;;;;10.20;1.80;;;;;;;;;;4968543;28;20051;-74
2022/10/09 09:36:54;;;;;;;7.47;1.90;;;;;;;;;;4950946;28;20059;-73
2022/10/09 09:39:23;;;;;;;6.05;1.80;;;;;;;;;;4966521;28;20065;-74
2022/10/09 09:41:50;;;;;;;9.75;2.10;;;;;;;;;;4951516;28;20050;-74
2022/10/09 09:44:18;;;;;;;12.55;1.98;;;;;;;;;;4951396;28;20059;-74
2022/10/09 09:46:47;;;;;;;9.00;1.95;;;;;;;;;;4950358;28;20074;-74
2022/10/09 09:49:17;;;;;;;10.68;1.98;;;;;;;;;;4952019;28;20833;-74
2022/10/09 09:51:45;;;;;;;7.60;2.22;;;;;;;;;;4968718;28;20057;-73
2022/10/09 09:54:17;;;;;;;9.10;2.13;;;;;;;;;;4949867;28;20125;-73
2022/10/09 09:56:46;;;;;;;14.00;1.88;;;;;;;;;;4965196;28;20042;-73
2022/10/09 09:59:27;;;;;;;8.65;2.42;;;;;;;;;;4965586;28;20114;-73
2022/10/09 10:02:00;;;;;;;12.75;2.92;;;;;;;;;;4965143;28;20089;-73
2022/10/09 10:04:28;;;;;;;10.23;2.40;;;;;;;;;;4968193;28;20088;-73
2022/10/09 10:06:55;;;;;;;9.48;2.10;;;;;;;;;;4951220;28;20093;-73
2022/10/09 10:09:22;;;;;;;10.80;2.10;;;;;;;;;;4950611;28;20051;-73
2022/10/09 10:11:53;;;;;;;13.27;2.90;;;;;;;;;;4964587;28;20166;-73
2022/10/09 10:14:20;;;;;;;8.38;2.90;;;;;;;;;;4966638;28;20130;-73
2022/10/09 10:16:49;;;;;;;13.80;2.40;;;;;;;;;;4966866;28;20046;-73
2022/10/09 10:19:21;;;;;;;8.23;2.40;;;;;;;;;;4966481;28;20047;-74
2022/10/09 10:21:49;;;;;;;8.63;2.10;;;;;;;;;;4966192;28;20043;-74
2022/10/09 10:24:21;;;;;;;11.73;2.55;;;;;;;;;;4960634;28;20058;-73
2022/10/09 10:26:51;;;;;;;10.55;2.30;;;;;;;;;;4967015;28;20414;-73
2022/10/09 10:29:21;;;;;;;9.32;2.05;;;;;;;;;;4966059;28;20066;-74
2022/10/09 10:31:51;;;;;;;8.63;3.10;;;;;;;;;;4948739;28;20051;-73
2022/10/09 10:34:21;;;;;;;14.38;2.47;;;;;;;;;;4968471;28;20094;-74
2022/10/09 10:36:50;;;;;;;9.00;1.92;;;;;;;;;;4949806;28;20050;-73
2022/10/09 10:39:21;;;;;;;11.50;3.08;;;;;;;;;;4950382;28;20089;-73
2022/10/09 10:41:50;;;;;;;8.15;1.63;;;;;;;;;;4964658;28;20050;-73
2022/10/09 10:44:23;;;;;;;13.00;2.42;;;;;;;;;;4967147;28;20057;-73
2022/10/09 10:46:53;;;;;;;8.35;1.52;;;;;;;;;;4949972;28;20053;-73
2022/10/09 10:49:21;;;;;;;8.57;1.80;;;;;;;;;;4968564;28;21013;-73
2022/10/09 10:51:53;;;;;;;12.90;2.33;;;;;;;;;;4966671;28;20405;-73
2022/10/09 10:54:27;;;;;;;10.40;2.10;;;;;;;;;;4951923;28;20055;-73
2022/10/09 10:56:57;;;;;;;13.20;1.85;;;;;;;;;;4967119;28;20150;-73
2022/10/09 10:59:36;;;;;;;10.82;2.03;;;;;;;;;;4950220;28;20413;-73
2022/10/09 11:02:15;;;;;;;12.70;1.85;;;;;;;;;;4968169;28;20054;-73
2022/10/09 11:04:47;;;;;;;9.10;1.70;;;;;;;;;;4964926;28;20051;-73
2022/10/09 11:07:21;;;;;;;5.72;1.50;;;;;;;;;;4966766;28;20085;-74
2022/10/09 11:09:53;;;;;;;13.40;2.00;;;;;;;;;;4963777;28;20054;-73
2022/10/09 11:12:23;;;;;;;9.85;1.92;;;;;;;;;;4967298;28;20055;-73
2022/10/09 11:14:57;;;;;;;10.80;1.88;;;;;;;;;;4965350;28;20054;-74
2022/10/09 11:17:29;;;;;;;8.30;1.40;;;;;;;;;;4948471;28;20054;-74
2022/10/09 11:20:04;;;;;;;5.97;1.48;;;;;;;;;;4965251;28;20054;-73
2022/10/09 11:22:39;;;;;;;9.32;1.88;;;;;;;;;;4965365;28;20063;-73
2022/10/09 11:25:16;;;;;;;8.70;1.33;;;;;;;;;;4948810;28;20405;-74
2022/10/09 11:27:47;;;;;;;10.40;1.58;;;;;;;;;;4948408;28;20502;-73
2022/10/09 11:30:17;;;;;;;12.13;1.60;;;;;;;;;;4950482;28;20520;-73
2022/10/09 11:32:51;;;;;;;7.25;1.30;;;;;;;;;;4963208;28;20054;-74
2022/10/09 11:35:21;;;;;;;9.27;1.92;;;;;;;;;;4945740;28;20768;-74
2022/10/09 11:37:51;;;;;;;10.90;1.35;;;;;;;;;;4948475;28;20489;-74
2022/10/09 11:40:20;;;;;;;8.10;1.80;;;;;;;;;;4962576;28;20057;-74
2022/10/09 11:42:49;;;;;;;9.35;1.50;;;;;;;;;;4949404;28;20051;-73
2022/10/09 11:45:23;;;;;;;10.02;1.10;;;;;;;;;;4966400;28;20478;-74
2022/10/09 11:47:55;;;;;;;8.75;1.40;;;;;;;;;;4948782;28;20395;-73
2022/10/09 11:50:33;;;;;;;10.17;1.47;;;;;;;;;;4966459;28;20042;-74
2022/10/09 11:53:03;;;;;;;9.15;1.38;;;;;;;;;;4960686;28;20078;-74
2022/10/09 11:55:31;;;;;;;5.10;1.00;;;;;;;;;;4967098;28;20066;-73
2022/10/09 11:58:08;;;;;;;5.63;1.02;;;;;;;;;;4945957;28;20047;-73
2022/10/09 12:00:37;;;;;;;8.80;1.58;;;;;;;;;;4963908;28;20090;-74
2022/10/09 12:03:06;;;;;;;8.05;1.10;;;;;;;;;;4948764;28;20101;-73
2022/10/09 12:05:36;;;;;;;6.35;1.75;;;;;;;;;;4942703;28;20042;-74
2022/10/09 12:08:08;;;;;;;12.35;1.65;;;;;;;;;;4964658;28;20065;-73
2022/10/09 12:10:36;;;;;;;10.30;2.28;;;;;;;;;;4946981;28;20062;-73
2022/10/09 12:13:05;;;;;;;9.75;1.73;;;;;;;;;;4959737;28;20080;-74
2022/10/09 12:15:39;;;;;;;8.35;1.42;;;;;;;;;;4963674;28;20051;-74
2022/10/09 12:18:17;;;;;;;6.35;1.25;;;;;;;;;;4963705;28;20054;-74
2022/10/09 12:20:46;;;;;;;7.10;1.17;;;;;;;;;;4947344;28;20478;-74
2022/10/09 12:23:14;;;;;;;8.07;1.60;;;;;;;;;;4964261;28;20062;-74
2022/10/09 12:25:43;;;;;;;4.25;1.17;;;;;;;;;;4964366;28;20054;-74
2022/10/09 12:28:17;;;;;;;4.65;1.17;;;;;;;;;;4964236;28;20050;-75
2022/10/09 12:30:47;;;;;;;5.75;1.27;;;;;;;;;;4947358;28;20046;-74
2022/10/09 12:33:18;;;;;;;4.22;1.30;;;;;;;;;;4947433;28;20043;-74
2022/10/09 12:35:47;;;;;;;6.40;1.40;;;;;;;;;;4946992;28;20169;-73
2022/10/09 12:38:18;;;;;;;5.50;1.20;;;;;;;;;;4947630;28;20192;-74
2022/10/09 12:40:46;;;;;;;7.57;1.20;;;;;;;;;;4946925;28;20124;-74
2022/10/09 12:43:17;;;;;;;5.63;1.15;;;;;;;;;;4944414;28;20081;-74
2022/10/09 12:45:46;;;;;;;7.70;1.15;;;;;;;;;;4961351;28;20051;-73
2022/10/09 12:48:14;;;;;;;5.55;1.20;;;;;;;;;;4962722;28;20682;-73
2022/10/09 12:50:41;;;;;;;7.57;2.13;;;;;;;;;;4964660;28;20054;-73
2022/10/09 12:53:13;;;;;;;8.30;1.80;;;;;;;;;;4965698;28;20494;-74
2022/10/09 12:55:42;;;;;;;7.55;1.65;;;;;;;;;;4964761;28;20048;-73
2022/10/09 12:58:14;;;;;;;8.00;1.35;;;;;;;;;;4965232;28;20055;-73
2022/10/09 13:00:42;;;;;;;8.05;1.63;;;;;;;;;;4961116;28;20054;-73
2022/10/09 13:03:22;;;;;;;7.85;1.65;;;;;;;;;;4964519;28;20054;-74
2022/10/09 13:05:49;;;;;;;6.32;1.70;;;;;;;;;;4960306;28;20100;-74
2022/10/09 13:08:22;;;;;;;13.98;2.25;;;;;;;;;;4965359;28;20518;-74
2022/10/09 13:10:49;;;;;;;7.53;1.58;;;;;;;;;;4947964;28;20134;-74
2022/10/09 13:13:19;;;;;;;7.90;1.67;;;;;;;;;;4964115;28;20701;-74
2022/10/09 13:15:46;;;;;;;11.68;1.77;;;;;;;;;;4942215;28;20421;-74
2022/10/09 13:18:20;;;;;;;8.40;1.65;;;;;;;;;;4963840;28;20509;-74
2022/10/09 13:20:58;;;;;;;11.60;2.28;;;;;;;;;;4944052;28;20063;-74
2022/10/09 13:23:27;;;;;;;7.07;1.60;;;;;;;;;;4963893;28;20461;-74
2022/10/09 13:25:54;;;;;;;7.72;1.60;;;;;;;;;;4962821;28;20051;-74
2022/10/09 13:28:22;;;;;;;9.60;1.67;;;;;;;;;;4947254;28;20089;-74
2022/10/09 13:30:49;;;;;;;12.52;2.00;;;;;;;;;;4963741;28;20511;-74
2022/10/09 13:33:17;;;;;;;8.07;1.70;;;;;;;;;;4966042;28;20050;-74
2022/10/09 13:35:44;;;;;;;8.07;2.05;;;;;;;;;;4947048;28;20489;-74
2022/10/09 13:38:16;;;;;;;8.15;1.85;;;;;;;;;;4949522;28;20051;-75
2022/10/09 13:40:43;;;;;;;7.38;1.77;;;;;;;;;;4960167;28;20081;-74
2022/10/09 13:43:12;;;;;;;7.38;1.95;;;;;;;;;;4949052;28;20065;-74
2022/10/09 13:45:39;;;;;;;7.60;1.95;;;;;;;;;;4947582;28;20062;-74
2022/10/09 13:48:06;;;;;;;6.95;2.08;;;;;;;;;;4959768;28;20417;-74
2022/10/09 13:50:34;;;;;;;8.10;1.80;;;;;;;;;;4962616;28;20050;-74
2022/10/09 13:53:01;;;;;;;8.85;1.83;;;;;;;;;;4948114;28;20149;-74
2022/10/09 13:55:30;;;;;;;8.73;1.52;;;;;;;;;;4947712;28;20446;-74
2022/10/09 13:57:57;;;;;;;9.38;1.67;;;;;;;;;;4943147;28;20066;-74
2022/10/09 14:00:24;;;;;;;9.27;1.75;;;;;;;;;;4968800;28;20422;-74
2022/10/09 14:02:52;;;;;;;6.00;1.90;;;;;;;;;;4964479;28;20050;-74
2022/10/09 14:05:20;;;;;;;9.40;2.13;;;;;;;;;;4946966;28;20050;-74
2022/10/09 14:07:47;;;;;;;9.07;1.88;;;;;;;;;;4949409;28;20080;-75
2022/10/09 14:10:15;;;;;;;7.07;1.90;;;;;;;;;;4969635;28;20166;-75
2022/10/09 14:12:43;;;;;;;7.60;2.15;;;;;;;;;;4965582;28;21925;-74
2022/10/09 14:15:11;;;;;;;9.60;3.05;;;;;;;;;;4967060;28;20054;-75
2022/10/09 14:17:38;;;;;;;11.88;2.20;;;;;;;;;;4965794;28;20556;-74
2022/10/09 14:20:06;;;;;;;8.10;1.85;;;;;;;;;;4948661;28;20094;-74
2022/10/09 14:22:33;;;;;;;11.30;2.33;;;;;;;;;;4968062;28;20054;-75
2022/10/09 14:25:00;;;;;;;9.88;2.38;;;;;;;;;;4958312;28;20046;-75
2022/10/09 14:27:27;;;;;;;12.95;2.60;;;;;;;;;;4965759;28;20039;-74
2022/10/09 14:29:56;;;;;;;9.63;2.45;;;;;;;;;;4965984;28;20051;-74
2022/10/09 14:32:23;;;;;;;10.80;2.40;;;;;;;;;;4968601;28;20046;-74
2022/10/09 14:34:51;;;;;;;9.10;2.67;;;;;;;;;;4966628;28;20050;-75
2022/10/09 14:37:18;;;;;;;10.82;2.78;;;;;;;;;;4950041;28;20535;-74
2022/10/09 14:39:45;;;;;;;7.22;2.20;;;;;;;;;;4968590;28;20047;-74
2022/10/09 14:42:13;;;;;;;10.52;2.63;;;;;;;;;;4968462;28;20050;-74
2022/10/09 14:44:40;;;;;;;10.52;2.40;;;;;;;;;;4955763;28;20106;-74